Time;durP1;ratioP1;P1;durP2;ratioP2;P2;SDS_P1;SDS_P2;PMS_P1;PMS_P2;Temp;Humidity;BMP_temperature;BMP_pressure;BME280_temperature;BME280_humidity;BME280_pressure;Samples;Min_cycle;Max_cycle;Signal;HPM_P1;HPM_P2
2021/07/01 00:00:12;;;;;;;1999.90;999.90;;;;;;;12.72;59.14;100508.59;5017172;27;97206;-70
2021/07/01 00:02:40;;;;;;;1999.90;999.90;;;;;;;12.71;59.08;100511.25;4993610;28;96772;-70
2021/07/01 00:05:10;;;;;;;1999.90;999.90;;;;;;;12.69;59.31;100516.53;5008014;27;98221;-70
2021/07/01 00:07:40;;;;;;;1999.90;999.90;;;;;;;12.65;59.64;100528.09;5007924;27;98662;-70
2021/07/01 00:10:10;;;;;;;1999.90;999.90;;;;;;;12.65;59.47;100522.75;4994583;27;97525;-70
2021/07/01 00:12:38;;;;;;;1999.90;999.90;;;;;;;12.64;59.42;100520.06;5013822;27;97343;-70
2021/07/01 00:15:09;;;;;;;1999.90;999.90;;;;;;;12.63;59.69;100512.94;5006528;27;97893;-71
2021/07/01 00:17:37;;;;;;;1999.90;999.90;;;;;;;12.62;59.48;100516.50;5003740;27;99424;-70
2021/07/01 00:20:06;;;;;;;1999.90;999.90;;;;;;;12.62;59.70;100513.84;5001393;27;97572;-72
2021/07/01 00:22:34;;;;;;;1999.90;999.90;;;;;;;12.61;59.75;100512.03;5007770;27;97902;-70
2021/07/01 00:25:04;;;;;;;1999.90;999.90;;;;;;;12.64;59.51;100509.38;5011579;27;99430;-70
2021/07/01 00:27:32;;;;;;;1999.90;999.90;;;;;;;12.63;59.56;100499.59;5009667;27;99205;-69
2021/07/01 00:30:00;;;;;;;1999.90;999.90;;;;;;;12.64;59.59;100493.38;5010636;27;96995;-70
2021/07/01 00:32:28;;;;;;;1999.90;999.90;;;;;;;12.62;59.59;100500.50;4990440;27;98335;-70
2021/07/01 00:34:56;;;;;;;1999.90;999.90;;;;;;;12.59;59.85;100501.34;4990522;27;100726;-69
2021/07/01 00:37:24;;;;;;;1999.90;999.90;;;;;;;13.01;59.22;100506.16;5005040;27;97620;-70
2021/07/01 00:39:52;;;;;;;1999.90;999.90;;;;;;;12.79;59.64;100498.81;5016872;27;96948;-70
2021/07/01 00:42:21;;;;;;;1999.90;999.90;;;;;;;12.82;59.12;100494.41;4990856;27;98129;-70
2021/07/01 00:44:49;;;;;;;1999.90;999.90;;;;;;;12.82;59.12;100505.09;4997298;27;100930;-70
2021/07/01 00:47:16;;;;;;;1999.90;999.90;;;;;;;12.82;59.05;100514.91;5007147;27;98839;-71
2021/07/01 00:49:44;;;;;;;1999.90;999.90;;;;;;;12.81;59.02;100513.09;4998173;27;97961;-70
2021/07/01 00:52:12;;;;;;;1999.90;999.90;;;;;;;12.72;59.07;100508.59;5010769;27;97912;-71
2021/07/01 00:54:40;;;;;;;1999.90;999.90;;;;;;;12.73;58.98;100514.81;5010349;27;99459;-70
2021/07/01 00:57:09;;;;;;;1999.90;999.90;;;;;;;12.70;59.26;100521.03;4999994;27;98497;-70
2021/07/01 00:59:39;;;;;;;1999.90;999.90;;;;;;;12.72;58.88;100523.69;5010943;27;96907;-71
2021/07/01 01:02:06;;;;;;;1999.90;999.90;;;;;;;12.69;59.10;100513.00;5007259;27;97537;-71
2021/07/01 01:04:35;;;;;;;1999.90;999.90;;;;;;;12.68;58.93;100522.78;5009233;27;97847;-71
2021/07/01 01:07:03;;;;;;;1999.90;999.90;;;;;;;12.67;58.98;100517.44;5010554;27;101441;-71
2021/07/01 01:09:32;;;;;;;1999.90;999.90;;;;;;;12.65;58.97;100516.53;4993097;27;97023;-71
2021/07/01 01:12:00;;;;;;;1999.90;999.90;;;;;;;12.65;58.79;100516.53;5005204;27;97794;-71
2021/07/01 01:14:28;;;;;;;1999.90;999.90;;;;;;;12.65;58.84;100512.09;4993832;27;99532;-71
2021/07/01 01:17:00;;;;;;;1999.90;999.90;;;;;;;12.62;58.75;100514.72;4995758;27;99746;-71
2021/07/01 01:19:29;;;;;;;1999.90;999.90;;;;;;;12.54;59.01;100508.44;5007929;27;97402;-70
2021/07/01 01:22:00;;;;;;;1999.90;999.90;;;;;;;12.49;59.09;100511.94;4997670;27;97850;-69
2021/07/01 01:24:33;;;;;;;1999.90;999.90;;;;;;;12.45;59.17;100507.44;4992341;28;98720;-70
2021/07/01 01:27:02;;;;;;;1999.90;999.90;;;;;;;12.43;59.12;100507.44;5008775;27;100553;-70
2021/07/01 01:29:29;;;;;;;1999.90;999.90;;;;;;;12.40;59.18;100507.38;5015592;27;97097;-70
2021/07/01 01:31:57;;;;;;;1999.90;999.90;;;;;;;12.39;59.21;100499.38;5014763;27;96832;-70
2021/07/01 01:34:25;;;;;;;1999.90;999.90;;;;;;;12.34;59.47;100498.44;5006310;27;99086;-70
2021/07/01 01:36:54;;;;;;;1999.90;999.90;;;;;;;12.28;59.51;100501.94;4997115;28;99342;-70
2021/07/01 01:39:23;;;;;;;1999.90;999.90;;;;;;;12.30;59.41;100496.63;4999162;28;96870;-70
2021/07/01 01:42:03;;;;;;;1999.90;999.90;;;;;;;12.31;59.33;100509.09;5010079;27;98187;-70
2021/07/01 01:44:32;;;;;;;1999.90;999.90;;;;;;;12.17;59.70;100500.94;5008806;27;99424;-70
2021/07/01 01:47:00;;;;;;;1999.90;999.90;;;;;;;12.21;59.55;100500.09;5000661;28;100349;-69
2021/07/01 01:49:29;;;;;;;1999.90;999.90;;;;;;;12.22;59.63;100499.22;5006542;28;97253;-70
2021/07/01 01:51:57;;;;;;;1999.90;999.90;;;;;;;12.22;59.53;100507.22;5003708;27;96928;-73
2021/07/01 01:54:26;;;;;;;1999.90;999.90;;;;;;;12.24;59.39;100501.94;5003946;28;97920;-70
2021/07/01 01:56:54;;;;;;;1999.90;999.90;;;;;;;12.23;59.66;100502.78;5017043;27;100140;-71
2021/07/01 01:59:40;;;;;;;1999.90;999.90;;;;;;;12.24;59.58;100507.25;5007850;27;97479;-71
2021/07/01 02:02:27;;;;;;;1999.90;999.90;;;;;;;12.22;59.29;100498.34;5006115;27;97177;-70
2021/07/01 02:05:18;;;;;;;1999.90;999.90;;;;;;;12.22;59.43;100503.69;5001126;27;98920;-70
2021/07/01 02:07:47;;;;;;;1999.90;999.90;;;;;;;12.22;59.27;100501.00;5010103;27;98130;-70
2021/07/01 02:10:29;;;;;;;1999.90;999.90;;;;;;;12.14;59.44;100506.22;4996272;27;98102;-69
2021/07/01 02:12:57;;;;;;;1999.90;999.90;;;;;;;12.09;59.30;100498.16;5010575;27;97791;-69
2021/07/01 02:15:26;;;;;;;1999.90;999.90;;;;;;;12.07;59.14;100502.59;5005266;27;99281;-70
2021/07/01 02:17:56;;;;;;;1999.90;999.90;;;;;;;12.06;59.19;100500.81;5009178;27;97764;-69
2021/07/01 02:20:27;;;;;;;1999.90;999.90;;;;;;;12.08;59.11;100500.81;5004938;27;96889;-69
2021/07/01 02:22:56;;;;;;;1999.90;999.90;;;;;;;12.05;59.01;100507.00;4999048;28;97090;-71
2021/07/01 02:25:34;;;;;;;1999.90;999.90;;;;;;;12.01;58.73;100507.88;4998260;28;102276;-69
2021/07/01 02:28:10;;;;;;;1999.90;999.90;;;;;;;12.00;58.95;100502.50;5016514;27;98822;-70
2021/07/01 02:30:38;;;;;;;1999.90;999.90;;;;;;;11.97;58.84;100503.38;4990071;27;97367;-70
2021/07/01 02:33:07;;;;;;;1999.90;999.90;;;;;;;11.92;58.93;100505.09;4987227;27;97428;-69
2021/07/01 02:35:36;;;;;;;1999.90;999.90;;;;;;;11.89;59.03;100505.06;5012697;27;98593;-69
2021/07/01 02:38:22;;;;;;;1999.90;999.90;;;;;;;11.87;59.03;100503.25;5005530;27;99719;-70
2021/07/01 02:41:00;;;;;;;1999.90;999.90;;;;;;;11.83;58.97;100515.66;4988023;28;97771;-70
2021/07/01 02:43:35;;;;;;;1999.90;999.90;;;;;;;11.80;58.89;100510.28;5003489;27;97862;-70
2021/07/01 02:46:21;;;;;;;1999.90;999.90;;;;;;;11.78;59.09;100517.34;5004219;27;98099;-71
2021/07/01 02:48:53;;;;;;;1999.90;999.90;;;;;;;11.76;58.92;100511.13;5000919;27;98920;-71
2021/07/01 02:51:21;;;;;;;1999.90;999.90;;;;;;;11.68;58.98;100512.81;5004771;27;96750;-70
2021/07/01 02:53:53;;;;;;;1999.90;999.90;;;;;;;11.72;58.93;100503.09;4998766;27;97321;-70
2021/07/01 02:56:39;;;;;;;1999.90;999.90;;;;;;;11.71;58.96;100499.50;4997806;27;101397;-70
2021/07/01 02:59:11;;;;;;;1999.90;999.90;;;;;;;11.70;58.97;100502.16;5006828;27;99113;-70
2021/07/01 03:01:57;;;;;;;1999.90;999.90;;;;;;;11.64;59.28;100508.31;5008754;27;98370;-70
2021/07/01 03:04:28;;;;;;;1999.90;999.90;;;;;;;11.56;59.41;100509.97;4997916;27;97430;-71
2021/07/01 03:06:56;;;;;;;1999.90;999.90;;;;;;;11.54;59.21;100506.41;4988471;27;100395;-70
2021/07/01 03:09:24;;;;;;;1999.90;999.90;;;;;;;11.53;59.52;100506.38;4998394;27;100398;-72
2021/07/01 03:11:53;;;;;;;1999.90;999.90;;;;;;;11.49;59.45;100505.44;5002799;27;97571;-70
2021/07/01 03:14:21;;;;;;;1999.90;999.90;;;;;;;11.47;59.30;100509.84;4997323;27;97464;-70
2021/07/01 03:16:49;;;;;;;1999.90;999.90;;;;;;;11.47;59.44;100506.31;5010704;27;98455;-69
2021/07/01 03:19:18;;;;;;;1999.90;999.90;;;;;;;11.48;59.31;100498.34;5015691;27;97862;-75
2021/07/01 03:22:05;;;;;;;1999.90;999.90;;;;;;;11.46;59.57;100501.84;5010036;27;97328;-70
2021/07/01 03:24:34;;;;;;;1999.90;999.90;;;;;;;11.39;59.75;100505.31;5014773;27;96990;-70
2021/07/01 03:27:07;;;;;;;1999.90;999.90;;;;;;;11.30;60.20;100502.50;4998184;28;101129;-70
2021/07/01 03:29:34;;;;;;;1999.90;999.90;;;;;;;11.21;60.02;100496.16;5012144;27;97726;-70
2021/07/01 03:32:07;;;;;;;1999.90;999.90;;;;;;;11.19;60.08;100495.25;5003481;28;97257;-70
2021/07/01 03:34:35;;;;;;;1999.90;999.90;;;;;;;11.16;59.97;100494.28;5008199;27;98569;-71
2021/07/01 03:37:04;;;;;;;1999.90;999.90;;;;;;;11.11;59.94;100496.00;4999395;28;99662;-70
2021/07/01 03:39:50;;;;;;;1999.90;999.90;;;;;;;11.04;60.30;100491.47;5009660;27;100571;-72
2021/07/01 03:42:26;;;;;;;1999.90;999.90;;;;;;;11.01;60.41;100497.63;4995637;27;97296;-70
2021/07/01 03:44:54;;;;;;;1999.90;999.90;;;;;;;11.00;60.27;100502.94;5018022;27;97964;-71
2021/07/01 03:47:24;;;;;;;1999.90;999.90;;;;;;;10.97;60.23;100492.25;5007095;27;98643;-76
2021/07/01 03:49:53;;;;;;;1999.90;999.90;;;;;;;10.94;60.11;100489.56;5012889;27;96863;-73
2021/07/01 03:52:39;;;;;;;1999.90;999.90;;;;;;;10.86;60.20;100493.88;5036771;27;97737;-73
2021/07/01 03:55:08;;;;;;;1999.90;999.90;;;;;;;10.82;60.12;100500.91;4997355;28;96897;-73
2021/07/01 03:57:37;;;;;;;1999.90;999.90;;;;;;;10.81;60.05;100500.88;5005644;27;98878;-72
2021/07/01 04:00:08;;;;;;;1999.90;999.90;;;;;;;10.80;60.06;100504.41;5008226;27;100362;-72
2021/07/01 04:02:45;;;;;;;1999.90;999.90;;;;;;;10.81;59.98;100512.41;5006950;27;97310;-73
2021/07/01 04:05:16;;;;;;;1999.90;999.90;;;;;;;10.79;60.09;100513.28;5005270;27;97476;-72
2021/07/01 04:07:47;;;;;;;1999.90;999.90;;;;;;;10.74;60.28;100512.31;4999853;27;100845;-72
2021/07/01 04:10:17;;;;;;;1999.90;999.90;;;;;;;10.72;59.97;100516.72;4998100;27;101370;-72
2021/07/01 04:13:07;;;;;;;1999.90;999.90;;;;;;;10.67;60.14;100521.94;5013428;27;97895;-72
2021/07/01 04:15:35;;;;;;;1999.90;999.90;;;;;;;10.71;59.92;100533.53;5010935;27;97455;-73
2021/07/01 04:18:21;;;;;;;1999.90;999.90;;;;;;;10.64;59.95;100523.66;5007675;27;97504;-73
2021/07/01 04:21:28;;;;;;;1999.90;999.90;;;;;;;10.60;59.98;100519.16;5005081;27;99714;-73
2021/07/01 04:24:28;;;;;;;1999.90;999.90;;;;;;;10.55;60.05;100516.44;5003104;27;97945;-73
2021/07/01 04:27:05;;;;;;;1999.90;999.90;;;;;;;10.55;59.83;100521.75;4991219;28;97286;-73
2021/07/01 04:29:41;;;;;;;1999.90;999.90;;;;;;;10.55;60.05;100520.84;4989614;27;99881;-73
2021/07/01 04:32:12;;;;;;;1999.90;999.90;;;;;;;10.52;59.99;100524.34;4988261;27;100078;-72
2021/07/01 04:34:40;;;;;;;1999.90;999.90;;;;;;;10.56;60.02;100525.28;4987173;27;96878;-73
2021/07/01 04:37:09;;;;;;;1999.90;999.90;;;;;;;10.58;59.90;100528.88;5001875;27;97027;-73
2021/07/01 04:39:51;;;;;;;1999.90;999.90;;;;;;;10.58;59.76;100528.88;5013478;27;97190;-73
2021/07/01 04:42:38;;;;;;;1999.90;999.90;;;;;;;10.58;59.64;100526.22;5009148;27;98043;-73
2021/07/01 04:45:09;;;;;;;1999.90;999.90;;;;;;;10.58;59.65;100526.22;5001999;28;97202;-72
2021/07/01 04:47:37;;;;;;;1999.90;999.90;;;;;;;10.58;59.65;100529.78;4997188;28;98403;-72
2021/07/01 04:50:07;;;;;;;1999.90;999.90;;;;;;;10.56;59.73;100525.28;4995387;28;100971;-72
2021/07/01 04:52:41;;;;;;;1999.90;999.90;;;;;;;10.55;59.59;100528.81;5011786;27;101035;-72
2021/07/01 04:55:29;;;;;;;1999.90;999.90;;;;;;;10.55;59.74;100528.81;5012003;27;97511;-71
2021/07/01 04:58:35;;;;;;;1999.90;999.90;;;;;;;10.47;59.94;100527.78;5007524;27;98103;-71
2021/07/01 05:01:24;;;;;;;1999.90;999.90;;;;;;;10.43;60.04;100525.97;5006209;27;100106;-71
2021/07/01 05:04:13;;;;;;;1999.90;999.90;;;;;;;10.41;59.76;100538.31;5008591;27;98723;-72
2021/07/01 05:06:47;;;;;;;1999.90;999.90;;;;;;;10.36;59.69;100527.56;4999064;27;97846;-72
2021/07/01 05:09:17;;;;;;;1999.90;999.90;;;;;;;10.36;59.71;100532.88;4995176;27;98537;-72
2021/07/01 05:11:46;;;;;;;1999.90;999.90;;;;;;;10.76;58.90;100537.16;4986198;27;99488;-72
2021/07/01 05:14:14;;;;;;;1999.90;999.90;;;;;;;10.93;58.44;100531.25;5004568;27;97944;-72
2021/07/01 05:16:44;;;;;;;1999.90;999.90;;;;;;;11.06;58.26;100532.31;4986513;27;97409;-72
2021/07/01 05:19:12;;;;;;;1999.90;999.90;;;;;;;10.75;59.22;100538.03;5001898;27;98184;-72
2021/07/01 05:21:50;;;;;;;1999.90;999.90;;;;;;;10.63;59.43;100538.72;5015191;27;97766;-72
2021/07/01 05:24:36;;;;;;;1999.90;999.90;;;;;;;10.56;59.54;100530.59;5001176;27;98742;-72
2021/07/01 05:27:30;;;;;;;1999.90;999.90;;;;;;;10.50;59.41;100530.53;5035975;27;97344;-72
2021/07/01 05:30:17;;;;;;;1999.90;999.90;;;;;;;10.45;59.78;100530.41;5006105;27;97312;-72
2021/07/01 05:33:22;;;;;;;1999.90;999.90;;;;;;;10.44;59.64;100527.75;4982285;28;100633;-74
2021/07/01 05:35:53;;;;;;;1999.90;999.90;;;;;;;10.44;59.73;100549.03;4999399;27;98515;-72
2021/07/01 05:38:21;;;;;;;1999.90;999.90;;;;;;;10.81;58.46;100525.72;5002552;27;96977;-72
2021/07/01 05:40:49;;;;;;;1999.90;999.90;;;;;;;10.57;59.19;100530.66;5001840;28;97953;-72
2021/07/01 05:43:17;;;;;;;1999.90;999.90;;;;;;;10.49;59.10;100534.03;5004017;27;99652;-72
2021/07/01 05:45:45;;;;;;;1999.90;999.90;;;;;;;10.44;59.22;100533.06;4999312;28;98627;-72
2021/07/01 05:48:13;;;;;;;1999.90;999.90;;;;;;;10.78;58.13;100540.75;5001638;28;97353;-72
2021/07/01 05:50:47;;;;;;;1999.90;999.90;;;;;;;10.51;58.86;100545.59;5012885;27;97195;-72
2021/07/01 05:53:22;;;;;;;1999.90;999.90;;;;;;;10.39;59.05;100551.59;5008510;27;99506;-72
2021/07/01 05:55:50;;;;;;;1999.90;999.90;;;;;;;10.29;59.50;100549.59;5003798;28;99550;-72
2021/07/01 05:58:18;;;;;;;1999.90;999.90;;;;;;;10.21;59.47;100546.81;5015498;27;97273;-72
2021/07/01 06:00:45;;;;;;;1999.90;999.90;;;;;;;10.20;59.58;100546.78;5007180;27;96938;-71
2021/07/01 06:03:13;;;;;;;1999.90;999.90;;;;;;;10.16;59.63;100548.50;5014639;27;99692;-74
2021/07/01 06:05:56;;;;;;;1999.90;999.90;;;;;;;10.11;59.70;100550.16;4987586;27;98771;-72
2021/07/01 06:08:44;;;;;;;1999.90;999.90;;;;;;;10.10;59.72;100559.00;5014976;27;97515;-72
2021/07/01 06:11:15;;;;;;;1999.90;999.90;;;;;;;10.05;59.76;100559.75;5013362;27;97572;-72
2021/07/01 06:13:44;;;;;;;1999.90;999.90;;;;;;;10.00;59.90;100562.34;4994729;28;100534;-71
2021/07/01 06:16:12;;;;;;;1999.90;999.90;;;;;;;9.99;59.62;100565.84;5011384;27;100691;-71
2021/07/01 06:18:41;;;;;;;1999.90;999.90;;;;;;;10.00;59.71;100562.34;5010082;27;97222;-72
2021/07/01 06:21:10;;;;;;;1999.90;999.90;;;;;;;10.03;59.75;100561.50;5009445;27;96981;-72
2021/07/01 06:23:40;;;;;;;1999.90;999.90;;;;;;;10.06;59.53;100569.56;5011362;27;98048;-73
2021/07/01 06:26:08;;;;;;;1999.90;999.90;;;;;;;10.04;59.72;100565.97;5011845;27;99247;-72
2021/07/01 06:28:40;;;;;;;1999.90;999.90;;;;;;;10.05;59.70;100563.34;5017229;27;97773;-73
2021/07/01 06:31:08;;;;;;;1999.90;999.90;;;;;;;10.47;58.63;100565.03;5005561;27;97026;-72
2021/07/01 06:33:39;;;;;;;1999.90;999.90;;;;;;;10.30;59.46;100563.81;5008574;27;99024;-72
2021/07/01 06:36:10;;;;;;;1999.90;999.90;;;;;;;10.29;59.36;100567.31;5007085;27;97941;-72
2021/07/01 06:39:01;;;;;;;1999.90;999.90;;;;;;;10.22;59.52;100576.97;5005788;27;98247;-73
2021/07/01 06:42:03;;;;;;;1999.90;999.90;;;;;;;10.17;59.48;100573.31;4982373;27;97511;-72
2021/07/01 06:44:50;;;;;;;1999.90;999.90;;;;;;;10.17;59.26;100560.91;5010153;27;99421;-73
2021/07/01 06:47:37;;;;;;;1999.90;999.90;;;;;;;10.17;59.50;100568.00;5007181;27;100797;-72
2021/07/01 06:50:26;;;;;;;1999.90;999.90;;;;;;;10.16;59.30;100584.81;5015837;27;98699;-72
2021/07/01 06:53:15;;;;;;;1999.90;999.90;;;;;;;10.16;59.61;100576.81;4993640;27;98384;-72
2021/07/01 06:55:52;;;;;;;1999.90;999.90;;;;;;;10.14;59.38;100574.16;4995284;28;100794;-72
2021/07/01 06:58:32;;;;;;;1999.90;999.90;;;;;;;10.16;59.35;100577.72;5014539;27;98192;-73
2021/07/01 07:01:00;;;;;;;1999.90;999.90;;;;;;;10.18;59.32;100573.34;5008096;27;97775;-72
2021/07/01 07:03:29;;;;;;;1999.90;999.90;;;;;;;10.19;59.28;100575.13;5014881;27;96945;-72
2021/07/01 07:05:57;;;;;;;1999.90;999.90;;;;;;;10.20;59.29;100582.25;5006529;27;100467;-71
2021/07/01 07:08:26;;;;;;;1999.90;999.90;;;;;;;10.25;59.21;100586.78;5009645;27;99359;-72
2021/07/01 07:10:55;;;;;;;1999.90;999.90;;;;;;;10.25;59.35;100589.44;5013022;27;97289;-72
2021/07/01 07:13:25;;;;;;;1999.90;999.90;;;;;;;10.25;59.29;100579.66;5009161;27;97621;-73
2021/07/01 07:15:54;;;;;;;1999.90;999.90;;;;;;;10.25;59.30;100584.97;4996691;27;101035;-73
2021/07/01 07:18:24;;;;;;;1999.90;999.90;;;;;;;10.28;59.32;100589.47;5020905;27;97460;-72
2021/07/01 07:20:56;;;;;;;1999.90;999.90;;;;;;;10.25;59.43;100586.78;5018745;27;97436;-72
2021/07/01 07:23:31;;;;;;;1999.90;999.90;;;;;;;10.23;59.77;100584.97;5011031;27;97514;-72
2021/07/01 07:26:01;;;;;;;1999.90;999.90;;;;;;;10.29;59.20;100580.63;5004289;28;98850;-71
2021/07/01 07:28:33;;;;;;;1999.90;999.90;;;;;;;10.27;59.50;100579.69;5021000;27;98949;-71
2021/07/01 07:31:04;;;;;;;1999.90;999.90;;;;;;;10.32;59.29;100581.56;5014926;27;96951;-72
2021/07/01 07:33:33;;;;;;;1999.90;999.90;;;;;;;10.37;59.33;100589.66;5017215;27;97155;-72
2021/07/01 07:36:02;;;;;;;1999.90;999.90;;;;;;;10.37;59.40;100582.56;5009095;27;98161;-72
2021/07/01 07:38:31;;;;;;;1999.90;999.90;;;;;;;10.38;58.83;100591.44;5013948;27;99219;-72
2021/07/01 07:40:59;;;;;;;1999.90;999.90;;;;;;;10.37;59.13;100585.22;5011995;27;97213;-72
2021/07/01 07:43:27;;;;;;;1999.90;999.90;;;;;;;10.37;59.01;100594.97;4999832;28;97851;-72
2021/07/01 07:45:57;;;;;;;1999.90;999.90;;;;;;;10.35;59.37;100591.38;5005977;27;99967;-73
2021/07/01 07:48:25;;;;;;;1999.90;999.90;;;;;;;10.36;59.20;100590.50;4991639;28;99687;-72
2021/07/01 07:50:55;;;;;;;1999.90;999.90;;;;;;;10.34;59.19;100584.28;5005932;27;96893;-72
2021/07/01 07:53:25;;;;;;;1999.90;999.90;;;;;;;10.35;59.51;100596.69;5024255;27;97442;-72
2021/07/01 07:56:01;;;;;;;1999.90;999.90;;;;;;;10.29;59.98;100597.47;5008558;27;99392;-72
2021/07/01 07:58:32;;;;;;;1999.90;999.90;;;;;;;10.26;59.39;100591.19;5009454;27;97972;-72
2021/07/01 08:01:01;;;;;;;1999.90;999.90;;;;;;;10.23;59.70;100590.28;5013475;27;98080;-72
2021/07/01 08:03:32;;;;;;;1999.90;999.90;;;;;;;10.21;59.93;100602.63;5008459;27;97592;-72
2021/07/01 08:06:00;;;;;;;1999.90;999.90;;;;;;;10.24;59.49;100601.81;4990397;27;98519;-72
2021/07/01 08:08:30;;;;;;;1999.90;999.90;;;;;;;10.25;59.41;100606.25;5005148;27;100570;-72
2021/07/01 08:11:01;;;;;;;1999.90;999.90;;;;;;;10.28;59.44;100600.13;5017103;27;98005;-72
2021/07/01 08:13:29;;;;;;;1999.90;999.90;;;;;;;10.32;59.63;100600.19;5012426;27;96812;-73
2021/07/01 08:15:58;;;;;;;1999.90;999.90;;;;;;;10.38;59.42;100602.06;5013254;27;98805;-72
2021/07/01 08:18:31;;;;;;;1999.90;999.90;;;;;;;10.34;59.70;100598.44;5008020;27;98620;-73
2021/07/01 08:21:00;;;;;;;1999.90;999.90;;;;;;;10.36;59.52;100593.16;5011148;27;97272;-73
2021/07/01 08:23:27;;;;;;;1999.90;999.90;;;;;;;10.37;59.47;100601.19;5009708;27;97973;-73
2021/07/01 08:25:55;;;;;;;1999.90;999.90;;;;;;;10.39;59.40;100598.56;5012393;27;97843;-73
2021/07/01 08:28:24;;;;;;;1999.90;999.90;;;;;;;10.40;59.41;100600.34;5010837;27;100115;-72
2021/07/01 08:30:53;;;;;;;1999.90;999.90;;;;;;;10.40;59.52;100603.91;5010459;27;97318;-72
2021/07/01 08:33:22;;;;;;;1999.90;999.90;;;;;;;10.40;59.42;100601.25;5019316;27;96961;-73
2021/07/01 08:35:53;;;;;;;1999.90;999.90;;;;;;;10.41;59.39;100612.78;5011964;27;97745;-72
2021/07/01 08:38:21;;;;;;;1999.90;999.90;;;;;;;10.43;59.30;100600.44;5012486;27;96971;-72
2021/07/01 08:40:50;;;;;;;1999.90;999.90;;;;;;;10.75;59.15;100604.56;5015114;27;96892;-71
2021/07/01 08:43:19;;;;;;;1999.90;999.90;;;;;;;10.61;59.50;100606.97;5010492;27;98003;-71
2021/07/01 08:45:57;;;;;;;1999.90;999.90;;;;;;;10.60;59.68;100609.63;5016253;27;99385;-72
2021/07/01 08:48:26;;;;;;;1999.90;999.90;;;;;;;10.64;59.62;100614.13;5003054;27;99189;-71
2021/07/01 08:50:56;;;;;;;1999.90;999.90;;;;;;;10.66;59.57;100615.06;5005577;27;97287;-72
2021/07/01 08:53:38;;;;;;;1999.90;999.90;;;;;;;10.66;59.68;100615.06;5009112;27;96557;-72
2021/07/01 08:56:10;;;;;;;1999.90;999.90;;;;;;;10.67;59.47;100611.50;5007626;27;99961;-72
2021/07/01 08:58:44;;;;;;;1999.90;999.90;;;;;;;10.68;60.09;100614.22;5010028;27;100664;-73
2021/07/01 09:01:14;;;;;;;1999.90;999.90;;;;;;;10.72;59.38;100623.16;4993847;28;97746;-72
2021/07/01 09:03:44;;;;;;;1999.90;999.90;;;;;;;10.69;59.56;100618.66;5006189;27;97986;-72
2021/07/01 09:06:18;;;;;;;1999.90;999.90;;;;;;;10.72;59.49;100620.50;5001317;28;99357;-72
2021/07/01 09:08:47;;;;;;;1999.90;999.90;;;;;;;10.76;59.21;100617.00;5011562;27;97581;-72
2021/07/01 09:11:16;;;;;;;1999.90;999.90;;;;;;;10.80;59.20;100608.19;4994757;28;96966;-72
2021/07/01 09:13:47;;;;;;;1999.90;999.90;;;;;;;10.88;59.15;100618.13;5007944;27;98189;-72
2021/07/01 09:16:18;;;;;;;1999.90;999.90;;;;;;;11.20;58.87;100626.63;5011812;27;99031;-71
2021/07/01 09:18:46;;;;;;;1999.90;999.90;;;;;;;11.08;59.38;100610.47;5010537;27;100063;-72
2021/07/01 09:21:15;;;;;;;1999.90;999.90;;;;;;;11.06;59.45;100617.53;5010558;27;97049;-72
2021/07/01 09:23:47;;;;;;;1999.90;999.90;;;;;;;11.07;59.03;100611.31;5005613;27;97251;-72
2021/07/01 09:26:24;;;;;;;1999.90;999.90;;;;;;;11.05;59.36;100607.75;5004861;27;100618;-70
2021/07/01 09:28:53;;;;;;;1999.90;999.90;;;;;;;11.07;59.08;100614.91;5009671;27;96868;-72
2021/07/01 09:31:24;;;;;;;1999.90;999.90;;;;;;;11.08;59.49;100621.13;5008525;27;97529;-72
2021/07/01 09:33:52;;;;;;;1999.90;999.90;;;;;;;11.10;59.14;100603.41;5009944;27;97126;-72
2021/07/01 09:36:24;;;;;;;1999.90;999.90;;;;;;;11.07;59.23;100609.56;5006282;27;98782;-72
2021/07/01 09:38:54;;;;;;;1999.90;999.90;;;;;;;11.13;58.97;100625.66;5012647;27;98459;-72
2021/07/01 09:41:25;;;;;;;1999.90;999.90;;;;;;;11.13;58.78;100614.09;5006734;27;98884;-72
2021/07/01 09:43:55;;;;;;;1999.90;999.90;;;;;;;11.17;58.68;100615.94;4994774;28;96861;-72
2021/07/01 09:46:28;;;;;;;1999.90;999.90;;;;;;;11.21;58.81;100609.81;5013620;27;100167;-72
2021/07/01 09:48:59;;;;;;;1999.90;999.90;;;;;;;11.49;58.30;100620.03;5004488;27;100987;-72
2021/07/01 09:51:28;;;;;;;1999.90;999.90;;;;;;;11.38;58.48;100620.75;5005054;27;98326;-71
2021/07/01 09:53:56;;;;;;;1999.90;999.90;;;;;;;11.27;58.90;100611.66;5013513;27;96866;-72
2021/07/01 09:56:36;;;;;;;1999.90;999.90;;;;;;;11.21;58.75;100617.78;5006315;27;97705;-72
2021/07/01 09:59:05;;;;;;;1999.90;999.90;;;;;;;11.21;58.63;100607.13;5003989;27;101661;-72
2021/07/01 10:01:38;;;;;;;1999.90;999.90;;;;;;;11.21;58.92;100612.47;5005354;27;98497;-71
2021/07/01 10:04:07;;;;;;;1999.90;999.90;;;;;;;11.26;58.61;100612.53;5011790;27;97324;-72
2021/07/01 10:06:35;;;;;;;1999.90;999.90;;;;;;;11.30;58.43;100611.69;5007705;27;100738;-71
2021/07/01 10:09:05;;;;;;;1999.90;999.90;;;;;;;11.31;58.42;100625.06;5008294;27;99412;-72
2021/07/01 10:11:35;;;;;;;1999.90;999.90;;;;;;;11.33;58.14;100615.34;5001165;27;97284;-72
2021/07/01 10:14:06;;;;;;;1999.90;999.90;;;;;;;11.31;58.26;100619.75;5013901;27;96946;-72
2021/07/01 10:16:36;;;;;;;1999.90;999.90;;;;;;;11.30;58.30;100627.69;5009583;27;98296;-72
2021/07/01 10:19:07;;;;;;;1999.90;999.90;;;;;;;11.31;58.21;100622.41;5005554;27;99618;-72
2021/07/01 10:21:36;;;;;;;1999.90;999.90;;;;;;;11.34;58.38;100614.50;5008353;27;97654;-71
2021/07/01 10:24:12;;;;;;;1999.90;999.90;;;;;;;11.34;58.37;100618.91;5003501;27;97477;-72
2021/07/01 10:26:41;;;;;;;1999.90;999.90;;;;;;;11.39;58.15;100623.44;5004771;27;98856;-72
2021/07/01 10:29:10;;;;;;;1999.90;999.90;;;;;;;11.40;58.06;100621.66;4991759;28;101209;-72
2021/07/01 10:31:49;;;;;;;1999.90;999.90;;;;;;;11.37;58.33;100618.94;5011434;27;97639;-71
2021/07/01 10:34:16;;;;;;;1999.90;999.90;;;;;;;11.41;58.18;100607.47;5005203;27;96731;-71
2021/07/01 10:36:44;;;;;;;1999.90;999.90;;;;;;;11.72;57.53;100631.94;5005930;27;97699;-71
2021/07/01 10:39:12;;;;;;;1999.90;999.90;;;;;;;11.57;57.80;100617.47;5008895;27;97599;-71
2021/07/01 10:41:41;;;;;;;1999.90;999.90;;;;;;;11.57;57.84;100617.47;5006610;27;97631;-72
2021/07/01 10:44:22;;;;;;;1999.90;999.90;;;;;;;11.57;57.91;100621.03;5007149;27;97992;-71
2021/07/01 10:46:51;;;;;;;1999.90;999.90;;;;;;;11.59;57.75;100610.41;5035168;27;97810;-72
2021/07/01 10:49:31;;;;;;;1999.90;999.90;;;;;;;11.62;57.71;100613.09;5004988;27;100303;-72
2021/07/01 10:52:00;;;;;;;1999.90;999.90;;;;;;;11.67;57.69;100620.28;5005509;27;96866;-72
2021/07/01 10:54:28;;;;;;;1999.90;999.90;;;;;;;11.70;57.68;100620.34;5011122;27;98463;-71
2021/07/01 10:57:06;;;;;;;1999.90;999.90;;;;;;;11.70;57.77;100630.09;4996147;28;99238;-72
2021/07/01 10:59:49;;;;;;;1999.90;999.90;;;;;;;11.73;57.73;100624.81;5014946;27;98547;-72
2021/07/01 11:02:24;;;;;;;1999.90;999.90;;;;;;;11.73;57.43;100628.38;5006750;27;97772;-72
2021/07/01 11:04:54;;;;;;;1999.90;999.90;;;;;;;11.77;57.40;100630.22;5014033;27;97328;-73
2021/07/01 11:07:22;;;;;;;1999.90;999.90;;;;;;;11.76;57.35;100631.06;5015786;27;99097;-71